Terminal Aerodrome Forecast
Issued by NWS Tallahassee, FL

Home | Current Version | Previous Version | Text Only | Print | Product List | Glossary On
Versions: 1 2 3 4 5 6 7 8 9 10 11 12 13
000
FTUS42 KTAE 251128
TAFTLH
TAF
KTLH 251128Z 2512/2612 11004KT P6SM BKN013
     FM251400 14009KT P6SM SCT040 SCT200
     FM252100 16008KT P6SM BKN050 PROB30 2521/2524 VRB15G25KT 3SM
      -TSRA BKN030CB
     FM260900 10007KT P6SM BKN015=

USA.gov is the U.S. government's official web portal to all federal, state and local government web resources and services.